createdAt,value
2022-09-07T00:01:36.388Z,16.80
2022-09-07T00:04:23.635Z,16.80
2022-09-07T00:07:12.224Z,16.70
2022-09-07T00:10:00.290Z,16.70
2022-09-07T00:12:47.865Z,16.70
2022-09-07T00:15:35.674Z,16.70
2022-09-07T00:18:23.183Z,16.70
2022-09-07T00:21:11.921Z,16.60
2022-09-07T00:24:01.479Z,16.50
2022-09-07T00:26:49.409Z,16.50
2022-09-07T00:29:37.022Z,16.40
2022-09-07T00:32:25.379Z,16.40
2022-09-07T00:35:12.818Z,16.40
2022-09-07T00:38:00.252Z,16.40
2022-09-07T00:40:49.305Z,16.40
2022-09-07T00:43:38.702Z,16.30
2022-09-07T00:46:27.838Z,16.30
2022-09-07T00:49:17.582Z,16.30
2022-09-07T00:52:06.950Z,16.40
2022-09-07T00:54:58.055Z,16.50
2022-09-07T00:57:49.308Z,16.40
2022-09-07T01:00:37.057Z,16.40
2022-09-07T01:03:25.663Z,16.60
2022-09-07T01:06:15.522Z,16.50
2022-09-07T01:09:04.976Z,16.40
2022-09-07T01:11:53.760Z,16.40
2022-09-07T01:14:45.917Z,16.40
2022-09-07T01:17:38.642Z,16.40
2022-09-07T01:20:35.655Z,16.50
2022-09-07T01:23:49.015Z,16.50
2022-09-07T01:26:55.649Z,16.50
2022-09-07T01:29:47.067Z,16.50
2022-09-07T01:32:49.624Z,16.50
2022-09-07T01:35:41.562Z,16.50
2022-09-07T01:38:32.361Z,16.50
2022-09-07T01:41:22.128Z,16.60
2022-09-07T01:44:11.606Z,16.50
2022-09-07T01:47:02.722Z,16.60
2022-09-07T01:49:54.443Z,16.60
2022-09-07T01:52:43.287Z,16.70
2022-09-07T01:55:34.124Z,16.60
2022-09-07T01:58:23.251Z,16.70
2022-09-07T02:01:13.252Z,16.70
2022-09-07T02:04:05.583Z,16.70
2022-09-07T02:06:55.900Z,16.70
2022-09-07T02:09:48.673Z,16.70
2022-09-07T02:12:38.953Z,16.70
2022-09-07T02:15:29.612Z,16.80
2022-09-07T02:18:16.762Z,17.30
2022-09-07T02:21:07.235Z,16.80
2022-09-07T02:23:58.145Z,17.10
2022-09-07T02:26:47.840Z,16.80
2022-09-07T02:29:36.421Z,16.90
2022-09-07T02:32:24.012Z,16.80
2022-09-07T02:35:11.558Z,16.90
2022-09-07T02:38:02.641Z,16.90
2022-09-07T02:40:52.181Z,16.90
2022-09-07T02:43:40.195Z,16.90
2022-09-07T02:46:34.976Z,16.90
2022-09-07T02:49:34.713Z,16.90
2022-09-07T02:52:24.827Z,16.80
2022-09-07T02:55:16.869Z,16.90
2022-09-07T02:58:12.601Z,16.90
2022-09-07T03:01:02.396Z,16.90
2022-09-07T03:03:54.532Z,16.90
2022-09-07T03:06:44.986Z,16.70
2022-09-07T03:09:37.457Z,16.70
2022-09-07T03:12:26.198Z,16.80
2022-09-07T03:15:18.749Z,16.80
2022-09-07T03:18:06.274Z,16.90
2022-09-07T03:20:54.822Z,16.90
2022-09-07T03:23:42.930Z,16.90
2022-09-07T03:26:30.933Z,16.90
2022-09-07T03:29:19.883Z,16.80
2022-09-07T03:32:07.503Z,16.90
2022-09-07T03:34:54.917Z,16.90
2022-09-07T03:37:42.662Z,16.90
2022-09-07T03:40:30.146Z,16.90
2022-09-07T03:43:18.269Z,17.00
2022-09-07T03:46:10.906Z,16.90
2022-09-07T03:48:58.811Z,16.90
2022-09-07T03:51:46.227Z,17.00
2022-09-07T03:54:37.719Z,17.00
2022-09-07T03:57:27.394Z,17.00
2022-09-07T04:00:16.345Z,16.90
2022-09-07T04:03:05.193Z,16.90
2022-09-07T04:05:53.002Z,17.00
2022-09-07T04:08:41.242Z,16.90
2022-09-07T04:11:29.145Z,16.90
2022-09-07T04:14:17.994Z,16.90
2022-09-07T04:17:05.695Z,17.00
2022-09-07T04:19:54.630Z,16.90
2022-09-07T04:22:42.139Z,17.00
2022-09-07T04:25:29.808Z,17.00
2022-09-07T04:28:18.722Z,16.90
2022-09-07T04:31:06.049Z,17.00
2022-09-07T04:33:54.218Z,16.90
2022-09-07T04:36:43.460Z,16.90
2022-09-07T04:39:31.398Z,17.10
2022-09-07T04:42:19.248Z,17.00
2022-09-07T04:45:07.733Z,16.90
2022-09-07T04:47:55.877Z,17.10
2022-09-07T04:50:43.833Z,17.00
2022-09-07T04:53:33.068Z,16.70
2022-09-07T04:56:21.337Z,16.80
2022-09-07T04:59:08.882Z,16.90
2022-09-07T05:01:56.321Z,16.50
2022-09-07T05:04:44.149Z,16.90
2022-09-07T05:07:32.057Z,16.90
2022-09-07T05:10:20.605Z,16.90
2022-09-07T05:13:08.221Z,16.90
2022-09-07T05:15:55.580Z,16.80
2022-09-07T05:18:42.924Z,16.90
2022-09-07T05:21:31.821Z,16.90
2022-09-07T05:24:19.835Z,16.90
2022-09-07T05:27:09.425Z,16.80
2022-09-07T05:32:48.132Z,16.90
2022-09-07T05:35:36.194Z,16.90
2022-09-07T05:38:24.260Z,16.90
2022-09-07T05:41:12.220Z,16.80
2022-09-07T05:47:09.290Z,16.80
2022-09-07T05:49:57.365Z,16.70
2022-09-07T05:52:46.205Z,16.70
2022-09-07T05:55:33.893Z,15.10
2022-09-07T05:58:21.776Z,16.60
2022-09-07T06:01:12.168Z,16.60
2022-09-07T06:03:59.553Z,16.50
2022-09-07T06:06:59.365Z,16.90
2022-09-07T06:13:02.373Z,16.40
2022-09-07T06:15:49.944Z,16.30
2022-09-07T06:18:39.537Z,16.30
2022-09-07T06:21:27.006Z,16.20
2022-09-07T06:24:14.691Z,16.20
2022-09-07T06:27:02.058Z,16.20
2022-09-07T06:29:49.332Z,16.30
2022-09-07T06:32:45.074Z,16.10
2022-09-07T06:35:34.377Z,16.10
2022-09-07T06:38:21.797Z,16.20
2022-09-07T06:44:17.157Z,16.40
2022-09-07T06:47:05.359Z,16.50
2022-09-07T06:49:52.723Z,16.60
2022-09-07T06:55:48.995Z,16.80
2022-09-07T06:58:39.168Z,16.80
2022-09-07T07:01:32.385Z,16.90
2022-09-07T07:04:19.596Z,16.90
2022-09-07T07:07:07.646Z,16.90
2022-09-07T07:09:57.025Z,17.00
2022-09-07T07:15:31.620Z,17.10
2022-09-07T07:18:21.310Z,17.20
2022-09-07T07:21:10.010Z,17.30
2022-09-07T07:23:57.935Z,17.40
2022-09-07T07:26:48.762Z,17.50
2022-09-07T07:29:36.400Z,17.60
2022-09-07T07:32:24.003Z,17.70
2022-09-07T07:35:12.019Z,17.80
2022-09-07T07:44:15.783Z,18.30
2022-09-07T07:47:03.763Z,18.30
2022-09-07T07:50:30.551Z,18.40
2022-09-07T07:56:06.842Z,18.40
2022-09-07T07:58:55.112Z,18.50
2022-09-07T08:01:44.019Z,18.50
2022-09-07T08:04:31.488Z,18.50
2022-09-07T08:07:19.564Z,18.50
2022-09-07T08:10:10.332Z,18.50
2022-09-07T08:12:58.354Z,18.60
2022-09-07T08:15:46.716Z,18.70
2022-09-07T08:18:36.311Z,18.80
2022-09-07T08:21:25.465Z,18.90
2022-09-07T08:24:13.105Z,18.90
2022-09-07T08:27:00.306Z,19.00
2022-09-07T08:29:48.117Z,19.00
2022-09-07T08:32:35.920Z,18.70
2022-09-07T08:35:25.217Z,19.20
2022-09-07T08:38:12.999Z,19.30
2022-09-07T08:41:02.211Z,19.30
2022-09-07T08:43:54.138Z,19.40
2022-09-07T08:46:43.716Z,19.60
2022-09-07T08:49:34.311Z,19.70
2022-09-07T08:52:24.789Z,19.90
2022-09-07T08:55:15.475Z,19.90
2022-09-07T08:58:17.697Z,19.90
2022-09-07T09:01:31.353Z,20.10
2022-09-07T09:04:23.158Z,20.30
2022-09-07T09:07:17.697Z,20.40
2022-09-07T09:10:20.597Z,20.60
2022-09-07T09:13:16.035Z,20.70
2022-09-07T09:16:06.760Z,20.90
2022-09-07T09:19:00.993Z,21.30
2022-09-07T09:21:48.768Z,21.50
2022-09-07T09:24:38.544Z,21.70
2022-09-07T09:27:26.441Z,21.80
2022-09-07T09:30:16.797Z,21.90
2022-09-07T09:33:15.279Z,21.80
2022-09-07T09:36:03.383Z,21.70
2022-09-07T09:38:50.797Z,21.80
2022-09-07T09:41:38.333Z,21.80
2022-09-07T09:44:33.088Z,21.90
2022-09-07T09:47:30.252Z,22.10
2022-09-07T09:53:29.411Z,22.40
2022-09-07T09:56:16.459Z,22.50
2022-09-07T10:05:37.460Z,22.70
2022-09-07T10:08:26.186Z,22.70
2022-09-07T10:11:15.836Z,23.00
2022-09-07T10:14:04.671Z,23.30
2022-09-07T10:16:51.822Z,23.40
2022-09-07T10:19:42.391Z,23.30
2022-09-07T10:22:32.459Z,23.20
2022-09-07T10:25:28.444Z,23.00
2022-09-07T10:28:18.987Z,23.00
2022-09-07T10:31:15.420Z,22.90
2022-09-07T10:37:22.483Z,23.00
2022-09-07T10:40:17.247Z,23.10
2022-09-07T10:43:26.549Z,23.10
2022-09-07T10:50:22.013Z,23.30
2022-09-07T10:52:53.407Z,23.40
2022-09-07T10:55:41.560Z,23.40
2022-09-07T11:01:45.591Z,23.10
2022-09-07T11:04:38.494Z,23.00
2022-09-07T11:07:39.632Z,23.20
2022-09-07T11:10:31.758Z,22.80
2022-09-07T11:13:20.438Z,22.80
2022-09-07T11:16:50.647Z,22.70
2022-09-07T11:19:37.839Z,22.90
2022-09-07T11:22:33.013Z,22.90
2022-09-07T11:25:30.013Z,23.00
2022-09-07T11:28:22.407Z,23.10
2022-09-07T11:31:16.138Z,23.40
2022-09-07T11:37:17.303Z,23.80
2022-09-07T11:40:07.533Z,23.80
2022-09-07T11:42:59.727Z,24.10
2022-09-07T11:45:50.809Z,24.40
2022-09-07T11:48:42.995Z,24.70
2022-09-07T11:51:36.614Z,24.80
2022-09-07T11:54:38.563Z,24.80
2022-09-07T11:57:35.116Z,24.70
2022-09-07T12:00:23.350Z,24.90
2022-09-07T12:03:23.244Z,24.80
2022-09-07T12:06:26.642Z,24.90
2022-09-07T12:09:20.280Z,25.10
2022-09-07T12:12:14.324Z,25.30
2022-09-07T12:15:09.664Z,25.40
2022-09-07T12:18:07.715Z,25.60
2022-09-07T12:20:56.574Z,25.50
2022-09-07T12:23:47.491Z,24.60
2022-09-07T12:26:50.251Z,25.50
2022-09-07T12:29:38.422Z,25.40
2022-09-07T12:32:57.316Z,25.30
2022-09-07T12:35:46.348Z,25.30
2022-09-07T12:39:01.682Z,25.30
2022-09-07T12:45:16.046Z,25.60
2022-09-07T12:48:06.861Z,25.70
2022-09-07T12:50:56.761Z,25.90
2022-09-07T12:53:48.523Z,26.00
2022-09-07T12:56:40.353Z,26.00
2022-09-07T12:59:35.962Z,25.80
2022-09-07T13:02:33.937Z,25.50
2022-09-07T13:05:27.870Z,25.30
2022-09-07T13:08:25.078Z,25.20
2022-09-07T13:11:25.116Z,25.30
2022-09-07T13:14:20.282Z,25.60
2022-09-07T13:17:26.619Z,25.70
2022-09-07T13:20:23.692Z,25.70
2022-09-07T13:23:19.901Z,25.50
2022-09-07T13:26:07.649Z,25.20
2022-09-07T13:28:57.025Z,25.10
2022-09-07T13:31:48.284Z,25.00
2022-09-07T13:34:46.455Z,24.90
2022-09-07T13:37:38.249Z,24.70
2022-09-07T13:40:27.294Z,24.80
2022-09-07T13:43:16.762Z,24.80
2022-09-07T13:46:07.539Z,24.80
2022-09-07T13:48:58.683Z,25.00
2022-09-07T13:51:50.522Z,23.70
2022-09-07T13:54:46.866Z,25.10
2022-09-07T13:57:42.389Z,25.00
2022-09-07T14:00:31.064Z,24.90
2022-09-07T14:03:18.872Z,25.10
2022-09-07T14:06:16.291Z,25.30
2022-09-07T14:09:05.353Z,25.40
2022-09-07T14:11:55.218Z,25.60
2022-09-07T14:14:43.239Z,25.60
2022-09-07T14:17:31.360Z,25.50
2022-09-07T14:20:19.309Z,25.50
2022-09-07T14:23:11.640Z,25.70
2022-09-07T14:26:16.909Z,25.80
2022-09-07T14:29:06.251Z,25.90
2022-09-07T14:31:54.423Z,25.90
2022-09-07T14:34:43.341Z,25.90
2022-09-07T14:37:30.606Z,25.90
2022-09-07T14:40:21.919Z,25.70
2022-09-07T14:43:24.352Z,25.60
2022-09-07T14:46:17.466Z,25.50
2022-09-07T14:49:07.950Z,25.60
2022-09-07T14:51:56.365Z,25.40
2022-09-07T14:54:43.331Z,25.30
2022-09-07T14:57:32.376Z,25.10
2022-09-07T15:00:21.829Z,24.90
2022-09-07T15:03:36.020Z,24.80
2022-09-07T15:09:43.289Z,25.10
2022-09-07T15:12:38.669Z,24.90
2022-09-07T15:15:27.694Z,24.90
2022-09-07T15:18:30.420Z,24.90
2022-09-07T15:21:18.184Z,25.10
2022-09-07T15:24:07.466Z,24.90
2022-09-07T15:27:02.466Z,24.80
2022-09-07T15:29:50.553Z,25.00
2022-09-07T15:32:37.784Z,25.20
2022-09-07T15:35:25.178Z,25.40
2022-09-07T15:41:24.448Z,25.70
2022-09-07T15:44:13.751Z,25.60
2022-09-07T15:50:09.489Z,25.20
2022-09-07T15:52:56.761Z,25.40
2022-09-07T15:55:44.425Z,25.60
2022-09-07T15:58:33.892Z,25.70
2022-09-07T16:04:29.708Z,25.80
2022-09-07T16:07:17.895Z,25.60
2022-09-07T16:10:06.811Z,25.40
2022-09-07T16:13:01.850Z,25.20
2022-09-07T16:15:51.855Z,25.20
2022-09-07T16:18:40.054Z,25.10
2022-09-07T16:21:27.509Z,25.10
2022-09-07T16:24:15.175Z,24.90
2022-09-07T16:27:03.131Z,24.80
2022-09-07T16:29:51.721Z,25.00
2022-09-07T16:32:44.448Z,24.80
2022-09-07T16:35:33.246Z,24.70
2022-09-07T16:41:31.479Z,24.40
2022-09-07T16:44:19.314Z,24.20
2022-09-07T16:47:08.145Z,24.20
2022-09-07T16:49:57.031Z,24.20
2022-09-07T16:52:45.993Z,24.10
2022-09-07T16:55:33.912Z,23.90
2022-09-07T16:58:37.049Z,23.60
2022-09-07T17:01:26.370Z,23.20
2022-09-07T17:04:13.636Z,22.90
2022-09-07T17:07:02.750Z,22.70
2022-09-07T17:09:50.730Z,22.50
2022-09-07T17:12:38.951Z,22.40
2022-09-07T17:15:26.281Z,22.30
2022-09-07T17:18:15.614Z,22.20
2022-09-07T17:21:03.928Z,22.10
2022-09-07T17:23:55.790Z,22.00
2022-09-07T17:26:44.449Z,22.00
2022-09-07T17:29:37.040Z,21.80
2022-09-07T17:32:26.329Z,21.80
2022-09-07T17:35:14.319Z,21.70
2022-09-07T17:39:13.907Z,21.50
2022-09-07T17:41:13.834Z,21.50
2022-09-07T17:44:01.149Z,21.40
2022-09-07T17:46:49.079Z,21.20
2022-09-07T17:49:36.924Z,21.10
2022-09-07T17:52:24.433Z,21.10
2022-09-07T17:55:11.369Z,21.00
2022-09-07T17:58:04.723Z,21.00
2022-09-07T18:00:54.275Z,20.90
2022-09-07T18:03:42.719Z,20.90
2022-09-07T18:06:30.880Z,20.80
2022-09-07T18:09:19.840Z,20.80
2022-09-07T18:12:07.492Z,20.70
2022-09-07T18:14:56.097Z,20.60
2022-09-07T18:17:43.711Z,20.50
2022-09-07T18:20:32.780Z,20.50
2022-09-07T18:23:20.152Z,20.50
2022-09-07T18:26:08.328Z,20.40
2022-09-07T18:29:08.406Z,20.30
2022-09-07T18:32:07.474Z,19.50
2022-09-07T18:34:55.680Z,20.20
2022-09-07T18:37:43.305Z,20.20
2022-09-07T18:40:33.408Z,20.20
2022-09-07T18:43:24.042Z,20.20
2022-09-07T18:46:13.660Z,20.20
2022-09-07T18:49:02.618Z,20.20
2022-09-07T18:54:57.633Z,20.20
2022-09-07T18:57:45.706Z,20.20
2022-09-07T19:00:33.153Z,18.70
2022-09-07T19:03:21.280Z,20.10
2022-09-07T19:06:12.954Z,20.00
2022-09-07T19:09:00.695Z,20.00
2022-09-07T19:11:48.914Z,19.90
2022-09-07T19:14:36.257Z,19.90
2022-09-07T19:17:24.825Z,19.90
2022-09-07T19:20:13.179Z,19.90
2022-09-07T19:23:02.833Z,19.90
2022-09-07T19:25:50.103Z,19.90
2022-09-07T19:28:38.262Z,19.90
2022-09-07T19:31:26.135Z,19.80
2022-09-07T19:34:14.132Z,20.00
2022-09-07T19:37:04.108Z,19.80
2022-09-07T19:39:55.063Z,19.80
2022-09-07T19:42:42.854Z,19.80
2022-09-07T19:45:31.127Z,19.70
2022-09-07T19:48:18.943Z,19.70
2022-09-07T19:51:07.880Z,19.70
2022-09-07T19:53:55.450Z,19.80
2022-09-07T19:56:47.034Z,19.70
2022-09-07T19:59:34.827Z,19.70
2022-09-07T20:02:22.856Z,19.60
2022-09-07T20:05:11.845Z,19.70
2022-09-07T20:07:59.766Z,19.70
2022-09-07T20:10:47.757Z,19.60
2022-09-07T20:13:37.949Z,19.60
2022-09-07T20:16:25.961Z,19.60
2022-09-07T20:19:15.100Z,19.80
2022-09-07T20:22:02.708Z,19.70
2022-09-07T20:24:50.727Z,19.60
2022-09-07T20:27:38.393Z,19.60
2022-09-07T20:30:27.602Z,19.70
2022-09-07T20:33:15.482Z,19.70
2022-09-07T20:36:03.405Z,19.70
2022-09-07T20:38:51.775Z,19.50
2022-09-07T20:41:39.680Z,19.50
2022-09-07T20:44:27.000Z,19.50
2022-09-07T20:47:15.668Z,19.50
2022-09-07T20:50:02.814Z,19.50
2022-09-07T20:52:50.844Z,19.50
2022-09-07T20:55:37.740Z,19.50
2022-09-07T20:58:24.918Z,19.50
2022-09-07T21:01:12.706Z,19.50
2022-09-07T21:04:01.778Z,19.50
2022-09-07T21:06:48.917Z,19.50
2022-09-07T21:09:36.204Z,19.50
2022-09-07T21:12:23.584Z,19.40
2022-09-07T21:15:11.029Z,19.40
2022-09-07T21:17:58.140Z,19.40
2022-09-07T21:21:18.377Z,19.40
2022-09-07T21:24:04.033Z,19.30
2022-09-07T21:26:51.866Z,19.30
2022-09-07T21:29:39.524Z,19.40
2022-09-07T21:32:27.347Z,19.30
2022-09-07T21:35:14.534Z,19.20
2022-09-07T21:38:03.428Z,19.20
2022-09-07T21:40:50.924Z,19.20
2022-09-07T21:43:38.707Z,19.10
2022-09-07T21:46:26.996Z,19.20
2022-09-07T21:49:14.284Z,19.00
2022-09-07T21:52:02.150Z,19.00
2022-09-07T21:54:51.264Z,19.10
2022-09-07T21:57:38.583Z,19.00
2022-09-07T22:00:26.364Z,19.00
2022-09-07T22:03:13.308Z,19.00
2022-09-07T22:06:02.654Z,19.10
2022-09-07T22:08:50.335Z,19.10
2022-09-07T22:11:42.039Z,19.10
2022-09-07T22:14:32.645Z,19.10
2022-09-07T22:17:20.652Z,19.00
2022-09-07T22:20:08.697Z,19.10
2022-09-07T22:22:55.898Z,19.10
2022-09-07T22:25:52.035Z,19.10
2022-09-07T22:28:41.905Z,19.00
2022-09-07T22:31:29.628Z,19.00
2022-09-07T22:34:17.279Z,19.00
2022-09-07T22:37:04.994Z,18.90
2022-09-07T22:39:53.277Z,18.90
2022-09-07T22:42:41.384Z,18.70
2022-09-07T22:45:30.919Z,18.80
2022-09-07T22:48:18.915Z,18.80
2022-09-07T22:51:07.405Z,18.70
2022-09-07T22:53:55.758Z,18.70
2022-09-07T22:56:43.176Z,18.60
2022-09-07T22:59:31.007Z,18.60
2022-09-07T23:02:20.031Z,18.80
2022-09-07T23:05:08.398Z,18.60
2022-09-07T23:07:56.047Z,18.50
2022-09-07T23:10:43.056Z,18.50
2022-09-07T23:13:31.345Z,18.60
2022-09-07T23:16:19.471Z,18.50
2022-09-07T23:19:08.351Z,18.40
2022-09-07T23:21:55.748Z,18.40
2022-09-07T23:24:43.490Z,18.40
2022-09-07T23:27:31.544Z,18.30
2022-09-07T23:30:19.512Z,18.30
2022-09-07T23:33:07.466Z,18.20
2022-09-07T23:36:00.353Z,17.90
2022-09-07T23:38:47.893Z,17.90
2022-09-07T23:41:35.578Z,17.80
2022-09-07T23:44:23.014Z,17.70
2022-09-07T23:47:10.569Z,17.50
2022-09-07T23:49:57.952Z,17.50
2022-09-07T23:52:47.338Z,17.30
2022-09-07T23:55:34.679Z,17.10
2022-09-07T23:58:22.728Z,16.90
